sensor_id;sensor_type;location;lat;lon;timestamp;temperature;humidity
49855;DHT22;35752;52.164;21.244;2022-12-29T00:01:37;6.00;99.90
49855;DHT22;35752;52.164;21.244;2022-12-29T00:04:04;6.00;99.90
49855;DHT22;35752;52.164;21.244;2022-12-29T00:06:30;6.10;99.90
49855;DHT22;35752;52.164;21.244;2022-12-29T00:08:56;6.10;99.90
49855;DHT22;35752;52.164;21.244;2022-12-29T00:11:26;6.10;99.90
49855;DHT22;35752;52.164;21.244;2022-12-29T00:13:53;6.00;99.90
49855;DHT22;35752;52.164;21.244;2022-12-29T00:16:40;6.00;99.90
49855;DHT22;35752;52.164;21.244;2022-12-29T00:19:06;6.10;99.90
49855;DHT22;35752;52.164;21.244;2022-12-29T00:21:52;6.10;99.90
49855;DHT22;35752;52.164;21.244;2022-12-29T00:24:36;6.10;99.90
49855;DHT22;35752;52.164;21.244;2022-12-29T00:27:20;6.10;99.90
49855;DHT22;35752;52.164;21.244;2022-12-29T00:30:17;6.10;99.90
49855;DHT22;35752;52.164;21.244;2022-12-29T00:33:12;6.20;99.90
49855;DHT22;35752;52.164;21.244;2022-12-29T00:36:09;6.10;99.90
49855;DHT22;35752;52.164;21.244;2022-12-29T00:38:38;6.20;99.90
49855;DHT22;35752;52.164;21.244;2022-12-29T00:41:24;6.20;99.90
49855;DHT22;35752;52.164;21.244;2022-12-29T00:44:10;6.10;99.90
49855;DHT22;35752;52.164;21.244;2022-12-29T00:46:37;6.10;99.90
49855;DHT22;35752;52.164;21.244;2022-12-29T00:49:04;6.10;99.90
49855;DHT22;35752;52.164;21.244;2022-12-29T00:51:49;6.10;99.90
49855;DHT22;35752;52.164;21.244;2022-12-29T00:54:15;6.10;99.90
49855;DHT22;35752;52.164;21.244;2022-12-29T00:56:41;6.10;99.90
49855;DHT22;35752;52.164;21.244;2022-12-29T00:59:09;6.10;99.90
49855;DHT22;35752;52.164;21.244;2022-12-29T01:01:35;6.10;99.90
49855;DHT22;35752;52.164;21.244;2022-12-29T01:04:01;6.10;99.90
49855;DHT22;35752;52.164;21.244;2022-12-29T01:06:27;6.20;99.90
49855;DHT22;35752;52.164;21.244;2022-12-29T01:08:52;6.20;99.90
49855;DHT22;35752;52.164;21.244;2022-12-29T01:11:38;6.20;99.90
49855;DHT22;35752;52.164;21.244;2022-12-29T01:14:04;6.10;99.90
49855;DHT22;35752;52.164;21.244;2022-12-29T01:16:30;6.10;99.90
49855;DHT22;35752;52.164;21.244;2022-12-29T01:18:55;6.10;99.90
49855;DHT22;35752;52.164;21.244;2022-12-29T01:21:21;6.10;99.90
49855;DHT22;35752;52.164;21.244;2022-12-29T01:23:47;6.10;99.90
49855;DHT22;35752;52.164;21.244;2022-12-29T01:26:14;6.20;99.90
49855;DHT22;35752;52.164;21.244;2022-12-29T01:28:40;6.10;99.90
49855;DHT22;35752;52.164;21.244;2022-12-29T01:31:08;6.10;99.90
49855;DHT22;35752;52.164;21.244;2022-12-29T01:33:34;6.10;99.90
49855;DHT22;35752;52.164;21.244;2022-12-29T01:36:03;6.10;99.90
49855;DHT22;35752;52.164;21.244;2022-12-29T01:38:30;6.10;99.90
49855;DHT22;35752;52.164;21.244;2022-12-29T01:40:56;6.10;99.90
49855;DHT22;35752;52.164;21.244;2022-12-29T01:43:21;6.00;99.90
49855;DHT22;35752;52.164;21.244;2022-12-29T01:46:03;6.00;99.90
49855;DHT22;35752;52.164;21.244;2022-12-29T01:48:28;6.10;99.90
49855;DHT22;35752;52.164;21.244;2022-12-29T01:50:54;6.00;99.90
49855;DHT22;35752;52.164;21.244;2022-12-29T01:53:32;6.00;99.90
49855;DHT22;35752;52.164;21.244;2022-12-29T01:56:02;6.10;99.90
49855;DHT22;35752;52.164;21.244;2022-12-29T01:58:33;6.10;99.90
49855;DHT22;35752;52.164;21.244;2022-12-29T02:01:01;6.10;99.90
49855;DHT22;35752;52.164;21.244;2022-12-29T02:03:28;6.10;99.90
49855;DHT22;35752;52.164;21.244;2022-12-29T02:06:07;6.10;99.90
49855;DHT22;35752;52.164;21.244;2022-12-29T02:08:38;6.10;99.90
49855;DHT22;35752;52.164;21.244;2022-12-29T02:11:04;6.00;99.90
49855;DHT22;35752;52.164;21.244;2022-12-29T02:13:30;6.00;99.90
49855;DHT22;35752;52.164;21.244;2022-12-29T02:24:36;6.00;99.90
49855;DHT22;35752;52.164;21.244;2022-12-29T02:35:44;6.10;99.90
49855;DHT22;35752;52.164;21.244;2022-12-29T02:41:55;6.00;99.90
49855;DHT22;35752;52.164;21.244;2022-12-29T02:44:24;6.00;99.90
49855;DHT22;35752;52.164;21.244;2022-12-29T02:46:56;5.90;99.90
49855;DHT22;35752;52.164;21.244;2022-12-29T02:52:35;5.80;99.90
49855;DHT22;35752;52.164;21.244;2022-12-29T02:55:03;5.80;99.90
49855;DHT22;35752;52.164;21.244;2022-12-29T02:57:34;5.80;99.90
49855;DHT22;35752;52.164;21.244;2022-12-29T03:00:16;5.80;99.90
49855;DHT22;35752;52.164;21.244;2022-12-29T03:03:06;5.70;99.90
49855;DHT22;35752;52.164;21.244;2022-12-29T03:05:52;5.70;99.90
49855;DHT22;35752;52.164;21.244;2022-12-29T03:08:39;5.60;99.90
49855;DHT22;35752;52.164;21.244;2022-12-29T03:11:11;5.60;99.90
49855;DHT22;35752;52.164;21.244;2022-12-29T03:16:59;5.50;99.90
49855;DHT22;35752;52.164;21.244;2022-12-29T03:19:26;5.60;99.90
49855;DHT22;35752;52.164;21.244;2022-12-29T03:21:56;5.50;99.90
49855;DHT22;35752;52.164;21.244;2022-12-29T03:24:44;5.50;99.90
49855;DHT22;35752;52.164;21.244;2022-12-29T03:27:15;5.50;99.90
49855;DHT22;35752;52.164;21.244;2022-12-29T03:29:46;5.50;99.90
49855;DHT22;35752;52.164;21.244;2022-12-29T03:32:13;5.40;99.90
49855;DHT22;35752;52.164;21.244;2022-12-29T03:34:40;5.50;99.90
49855;DHT22;35752;52.164;21.244;2022-12-29T03:37:19;5.40;99.90
49855;DHT22;35752;52.164;21.244;2022-12-29T03:39:46;5.40;99.90
49855;DHT22;35752;52.164;21.244;2022-12-29T03:42:15;5.40;99.90
49855;DHT22;35752;52.164;21.244;2022-12-29T03:44:43;5.30;99.90
49855;DHT22;35752;52.164;21.244;2022-12-29T03:47:14;5.40;99.90
49855;DHT22;35752;52.164;21.244;2022-12-29T03:49:40;5.30;99.90
49855;DHT22;35752;52.164;21.244;2022-12-29T03:52:06;5.20;99.90
49855;DHT22;35752;52.164;21.244;2022-12-29T03:54:32;5.20;99.90
49855;DHT22;35752;52.164;21.244;2022-12-29T03:56:58;5.20;99.90
49855;DHT22;35752;52.164;21.244;2022-12-29T03:59:23;5.10;99.90
49855;DHT22;35752;52.164;21.244;2022-12-29T04:01:49;5.00;99.90
49855;DHT22;35752;52.164;21.244;2022-12-29T04:04:15;4.90;99.90
49855;DHT22;35752;52.164;21.244;2022-12-29T04:06:41;4.90;99.90
49855;DHT22;35752;52.164;21.244;2022-12-29T04:09:06;4.80;99.90
49855;DHT22;35752;52.164;21.244;2022-12-29T04:11:32;4.80;99.90
49855;DHT22;35752;52.164;21.244;2022-12-29T04:13:58;4.80;99.90
49855;DHT22;35752;52.164;21.244;2022-12-29T04:16:23;4.80;99.90
49855;DHT22;35752;52.164;21.244;2022-12-29T04:18:49;4.80;99.90
49855;DHT22;35752;52.164;21.244;2022-12-29T04:21:15;4.80;99.90
49855;DHT22;35752;52.164;21.244;2022-12-29T04:23:40;4.80;99.90
49855;DHT22;35752;52.164;21.244;2022-12-29T04:26:07;4.70;99.90
49855;DHT22;35752;52.164;21.244;2022-12-29T04:28:36;4.80;99.90
49855;DHT22;35752;52.164;21.244;2022-12-29T04:31:03;4.80;99.90
49855;DHT22;35752;52.164;21.244;2022-12-29T04:33:29;4.70;99.90
49855;DHT22;35752;52.164;21.244;2022-12-29T04:35:55;4.80;99.90
49855;DHT22;35752;52.164;21.244;2022-12-29T04:38:22;4.80;99.90
49855;DHT22;35752;52.164;21.244;2022-12-29T04:40:49;4.70;99.90
49855;DHT22;35752;52.164;21.244;2022-12-29T04:43:15;4.70;99.90
49855;DHT22;35752;52.164;21.244;2022-12-29T04:45:44;4.70;99.90
49855;DHT22;35752;52.164;21.244;2022-12-29T04:48:10;4.70;99.90
49855;DHT22;35752;52.164;21.244;2022-12-29T04:50:36;4.60;99.90
49855;DHT22;35752;52.164;21.244;2022-12-29T04:53:02;4.60;99.90
49855;DHT22;35752;52.164;21.244;2022-12-29T04:55:28;4.60;99.90
49855;DHT22;35752;52.164;21.244;2022-12-29T04:57:54;4.60;99.90
49855;DHT22;35752;52.164;21.244;2022-12-29T05:00:20;4.50;99.90
49855;DHT22;35752;52.164;21.244;2022-12-29T05:02:46;4.50;99.90
49855;DHT22;35752;52.164;21.244;2022-12-29T05:05:12;4.50;99.90
49855;DHT22;35752;52.164;21.244;2022-12-29T05:07:37;4.40;99.90
49855;DHT22;35752;52.164;21.244;2022-12-29T05:10:04;4.40;99.90
49855;DHT22;35752;52.164;21.244;2022-12-29T05:12:34;4.40;99.90
49855;DHT22;35752;52.164;21.244;2022-12-29T05:15:00;4.40;99.90
49855;DHT22;35752;52.164;21.244;2022-12-29T05:17:26;4.40;99.90
49855;DHT22;35752;52.164;21.244;2022-12-29T05:19:51;4.40;99.90
49855;DHT22;35752;52.164;21.244;2022-12-29T05:22:17;4.40;99.90
49855;DHT22;35752;52.164;21.244;2022-12-29T05:24:43;4.40;99.90
49855;DHT22;35752;52.164;21.244;2022-12-29T05:27:08;4.50;99.90
49855;DHT22;35752;52.164;21.244;2022-12-29T05:29:34;4.40;99.90
49855;DHT22;35752;52.164;21.244;2022-12-29T05:32:00;4.40;99.90
49855;DHT22;35752;52.164;21.244;2022-12-29T05:34:25;4.40;99.90
49855;DHT22;35752;52.164;21.244;2022-12-29T05:36:51;4.40;99.90
49855;DHT22;35752;52.164;21.244;2022-12-29T05:39:17;4.40;99.90
49855;DHT22;35752;52.164;21.244;2022-12-29T05:41:42;4.40;99.90
49855;DHT22;35752;52.164;21.244;2022-12-29T05:44:10;4.40;99.90
49855;DHT22;35752;52.164;21.244;2022-12-29T05:46:35;4.40;99.90
49855;DHT22;35752;52.164;21.244;2022-12-29T05:49:01;4.30;99.90
49855;DHT22;35752;52.164;21.244;2022-12-29T05:51:27;4.30;99.90
49855;DHT22;35752;52.164;21.244;2022-12-29T05:53:52;4.30;99.90
49855;DHT22;35752;52.164;21.244;2022-12-29T05:56:18;4.30;99.90
49855;DHT22;35752;52.164;21.244;2022-12-29T05:58:44;4.30;99.90
49855;DHT22;35752;52.164;21.244;2022-12-29T06:01:09;4.30;99.90
49855;DHT22;35752;52.164;21.244;2022-12-29T06:03:35;4.20;99.90
49855;DHT22;35752;52.164;21.244;2022-12-29T06:06:00;4.20;99.90
49855;DHT22;35752;52.164;21.244;2022-12-29T06:08:26;4.20;99.90
49855;DHT22;35752;52.164;21.244;2022-12-29T06:10:52;4.20;99.90
49855;DHT22;35752;52.164;21.244;2022-12-29T06:13:17;4.20;99.90
49855;DHT22;35752;52.164;21.244;2022-12-29T06:15:44;4.20;99.90
49855;DHT22;35752;52.164;21.244;2022-12-29T06:18:10;4.20;99.90
49855;DHT22;35752;52.164;21.244;2022-12-29T06:20:35;4.20;99.90
49855;DHT22;35752;52.164;21.244;2022-12-29T06:23:01;4.20;99.90
49855;DHT22;35752;52.164;21.244;2022-12-29T06:25:27;4.20;99.90
49855;DHT22;35752;52.164;21.244;2022-12-29T06:27:53;4.20;99.90
49855;DHT22;35752;52.164;21.244;2022-12-29T06:30:19;4.30;99.90
49855;DHT22;35752;52.164;21.244;2022-12-29T06:32:45;4.30;99.90
49855;DHT22;35752;52.164;21.244;2022-12-29T06:35:11;4.30;99.90
49855;DHT22;35752;52.164;21.244;2022-12-29T06:37:36;4.40;99.90
49855;DHT22;35752;52.164;21.244;2022-12-29T06:40:02;4.30;99.90
49855;DHT22;35752;52.164;21.244;2022-12-29T06:42:28;4.40;99.90
49855;DHT22;35752;52.164;21.244;2022-12-29T06:44:54;4.40;99.90
49855;DHT22;35752;52.164;21.244;2022-12-29T06:47:19;4.40;99.90
49855;DHT22;35752;52.164;21.244;2022-12-29T06:49:45;4.40;99.90
49855;DHT22;35752;52.164;21.244;2022-12-29T06:52:11;4.50;99.90
49855;DHT22;35752;52.164;21.244;2022-12-29T06:54:36;4.50;99.90
49855;DHT22;35752;52.164;21.244;2022-12-29T06:57:02;4.50;99.90
49855;DHT22;35752;52.164;21.244;2022-12-29T06:59:28;4.40;99.90
49855;DHT22;35752;52.164;21.244;2022-12-29T07:01:54;4.60;99.90
49855;DHT22;35752;52.164;21.244;2022-12-29T07:04:19;4.50;99.90
49855;DHT22;35752;52.164;21.244;2022-12-29T07:06:45;4.50;99.90
49855;DHT22;35752;52.164;21.244;2022-12-29T07:09:11;4.50;99.90
49855;DHT22;35752;52.164;21.244;2022-12-29T07:11:37;4.50;99.90
49855;DHT22;35752;52.164;21.244;2022-12-29T07:14:03;4.50;99.90
49855;DHT22;35752;52.164;21.244;2022-12-29T07:16:29;4.50;99.90
49855;DHT22;35752;52.164;21.244;2022-12-29T07:18:56;4.50;99.90
49855;DHT22;35752;52.164;21.244;2022-12-29T07:21:22;4.50;99.90
49855;DHT22;35752;52.164;21.244;2022-12-29T07:23:47;4.50;99.90
49855;DHT22;35752;52.164;21.244;2022-12-29T07:26:14;4.50;99.90
49855;DHT22;35752;52.164;21.244;2022-12-29T07:28:40;4.50;99.90
49855;DHT22;35752;52.164;21.244;2022-12-29T07:31:16;4.50;99.90
49855;DHT22;35752;52.164;21.244;2022-12-29T07:33:43;4.50;99.90
49855;DHT22;35752;52.164;21.244;2022-12-29T07:36:10;4.60;99.90
49855;DHT22;35752;52.164;21.244;2022-12-29T07:38:35;4.60;99.90
49855;DHT22;35752;52.164;21.244;2022-12-29T07:41:01;4.60;99.90
49855;DHT22;35752;52.164;21.244;2022-12-29T07:43:27;4.60;99.90
49855;DHT22;35752;52.164;21.244;2022-12-29T07:45:53;4.60;99.90
49855;DHT22;35752;52.164;21.244;2022-12-29T07:48:18;4.60;99.90
49855;DHT22;35752;52.164;21.244;2022-12-29T07:50:44;4.70;99.90
49855;DHT22;35752;52.164;21.244;2022-12-29T07:53:10;4.70;99.90
49855;DHT22;35752;52.164;21.244;2022-12-29T07:55:36;4.70;99.90
49855;DHT22;35752;52.164;21.244;2022-12-29T07:58:02;4.80;99.90
49855;DHT22;35752;52.164;21.244;2022-12-29T08:00:27;4.80;99.90
49855;DHT22;35752;52.164;21.244;2022-12-29T08:02:53;4.80;99.90
49855;DHT22;35752;52.164;21.244;2022-12-29T08:05:19;4.80;99.90
49855;DHT22;35752;52.164;21.244;2022-12-29T08:07:45;4.80;99.90
49855;DHT22;35752;52.164;21.244;2022-12-29T08:10:12;4.90;99.90
49855;DHT22;35752;52.164;21.244;2022-12-29T08:12:39;4.90;99.90
49855;DHT22;35752;52.164;21.244;2022-12-29T08:15:08;4.90;99.90
49855;DHT22;35752;52.164;21.244;2022-12-29T08:17:34;5.00;99.90
49855;DHT22;35752;52.164;21.244;2022-12-29T08:20:00;5.00;99.90
49855;DHT22;35752;52.164;21.244;2022-12-29T08:22:25;5.10;99.90
49855;DHT22;35752;52.164;21.244;2022-12-29T08:24:51;5.10;99.90
49855;DHT22;35752;52.164;21.244;2022-12-29T08:27:17;5.20;99.90
49855;DHT22;35752;52.164;21.244;2022-12-29T08:29:43;5.20;99.90
49855;DHT22;35752;52.164;21.244;2022-12-29T08:32:09;5.30;99.90
49855;DHT22;35752;52.164;21.244;2022-12-29T08:34:35;5.30;99.90
49855;DHT22;35752;52.164;21.244;2022-12-29T08:37:00;5.40;99.90
49855;DHT22;35752;52.164;21.244;2022-12-29T08:39:26;5.40;99.90
49855;DHT22;35752;52.164;21.244;2022-12-29T08:41:53;5.50;99.90
49855;DHT22;35752;52.164;21.244;2022-12-29T08:44:18;5.60;99.90
49855;DHT22;35752;52.164;21.244;2022-12-29T08:46:44;5.80;99.90
49855;DHT22;35752;52.164;21.244;2022-12-29T08:49:10;5.70;99.90
49855;DHT22;35752;52.164;21.244;2022-12-29T08:51:35;5.90;99.90
49855;DHT22;35752;52.164;21.244;2022-12-29T08:54:01;6.00;99.90
49855;DHT22;35752;52.164;21.244;2022-12-29T08:56:27;6.00;99.90
49855;DHT22;35752;52.164;21.244;2022-12-29T08:58:53;6.10;99.90
49855;DHT22;35752;52.164;21.244;2022-12-29T09:01:19;6.20;99.90
49855;DHT22;35752;52.164;21.244;2022-12-29T09:03:45;6.30;99.90
49855;DHT22;35752;52.164;21.244;2022-12-29T09:06:11;6.40;99.90
49855;DHT22;35752;52.164;21.244;2022-12-29T09:08:36;6.40;99.90
49855;DHT22;35752;52.164;21.244;2022-12-29T09:11:11;6.50;99.90
49855;DHT22;35752;52.164;21.244;2022-12-29T09:13:37;6.60;99.90
49855;DHT22;35752;52.164;21.244;2022-12-29T09:16:04;6.60;99.90
49855;DHT22;35752;52.164;21.244;2022-12-29T09:18:30;6.60;99.90
49855;DHT22;35752;52.164;21.244;2022-12-29T09:21:01;6.60;99.90
49855;DHT22;35752;52.164;21.244;2022-12-29T09:23:27;6.60;99.90
49855;DHT22;35752;52.164;21.244;2022-12-29T09:25:53;6.70;99.90
49855;DHT22;35752;52.164;21.244;2022-12-29T09:28:20;6.70;99.90
49855;DHT22;35752;52.164;21.244;2022-12-29T09:30:48;6.80;99.90
49855;DHT22;35752;52.164;21.244;2022-12-29T09:33:14;6.80;99.90
49855;DHT22;35752;52.164;21.244;2022-12-29T09:35:44;6.80;99.90
49855;DHT22;35752;52.164;21.244;2022-12-29T09:38:10;6.90;99.90
49855;DHT22;35752;52.164;21.244;2022-12-29T09:40:37;6.90;99.90
49855;DHT22;35752;52.164;21.244;2022-12-29T09:45:54;6.90;99.90
49855;DHT22;35752;52.164;21.244;2022-12-29T09:48:28;7.00;99.90
49855;DHT22;35752;52.164;21.244;2022-12-29T09:51:01;7.10;99.90
49855;DHT22;35752;52.164;21.244;2022-12-29T09:56:01;7.10;99.90
49855;DHT22;35752;52.164;21.244;2022-12-29T10:01:31;7.10;99.90
49855;DHT22;35752;52.164;21.244;2022-12-29T10:03:58;7.20;99.90
49855;DHT22;35752;52.164;21.244;2022-12-29T10:09:13;7.20;99.90
49855;DHT22;35752;52.164;21.244;2022-12-29T10:22:53;7.30;99.90
49855;DHT22;35752;52.164;21.244;2022-12-29T10:25:25;7.30;99.90
49855;DHT22;35752;52.164;21.244;2022-12-29T10:27:53;7.30;99.90
49855;DHT22;35752;52.164;21.244;2022-12-29T10:30:21;7.30;99.90
49855;DHT22;35752;52.164;21.244;2022-12-29T10:32:53;7.30;99.90
49855;DHT22;35752;52.164;21.244;2022-12-29T10:35:25;7.40;99.90
49855;DHT22;35752;52.164;21.244;2022-12-29T10:41:11;7.40;99.90
49855;DHT22;35752;52.164;21.244;2022-12-29T10:43:50;7.40;99.90
49855;DHT22;35752;52.164;21.244;2022-12-29T10:46:26;7.40;99.90
49855;DHT22;35752;52.164;21.244;2022-12-29T10:48:52;7.50;99.90
49855;DHT22;35752;52.164;21.244;2022-12-29T10:51:25;7.50;99.90
49855;DHT22;35752;52.164;21.244;2022-12-29T10:57:22;7.60;99.90
49855;DHT22;35752;52.164;21.244;2022-12-29T10:59:50;7.60;99.90
49855;DHT22;35752;52.164;21.244;2022-12-29T11:02:37;7.70;99.90
49855;DHT22;35752;52.164;21.244;2022-12-29T11:07:42;7.80;99.90
49855;DHT22;35752;52.164;21.244;2022-12-29T11:10:41;7.80;99.90
49855;DHT22;35752;52.164;21.244;2022-12-29T11:15:42;7.90;99.90
49855;DHT22;35752;52.164;21.244;2022-12-29T11:21:04;7.90;99.90
49855;DHT22;35752;52.164;21.244;2022-12-29T11:23:31;8.00;99.90
49855;DHT22;35752;52.164;21.244;2022-12-29T11:28:32;8.00;99.90
49855;DHT22;35752;52.164;21.244;2022-12-29T11:31:03;8.00;99.90
49855;DHT22;35752;52.164;21.244;2022-12-29T11:33:29;8.00;99.90
49855;DHT22;35752;52.164;21.244;2022-12-29T11:38:36;8.00;99.90
49855;DHT22;35752;52.164;21.244;2022-12-29T11:41:04;8.00;99.90
49855;DHT22;35752;52.164;21.244;2022-12-29T11:46:01;8.00;99.90
49855;DHT22;35752;52.164;21.244;2022-12-29T11:48:38;8.10;99.90
49855;DHT22;35752;52.164;21.244;2022-12-29T11:51:05;8.10;99.90
49855;DHT22;35752;52.164;21.244;2022-12-29T11:53:46;8.10;99.90
49855;DHT22;35752;52.164;21.244;2022-12-29T11:56:15;8.10;99.90
49855;DHT22;35752;52.164;21.244;2022-12-29T11:58:41;8.10;99.90
49855;DHT22;35752;52.164;21.244;2022-12-29T12:01:15;8.10;99.90
49855;DHT22;35752;52.164;21.244;2022-12-29T12:04:02;8.10;99.90
49855;DHT22;35752;52.164;21.244;2022-12-29T12:06:30;8.10;99.90
49855;DHT22;35752;52.164;21.244;2022-12-29T12:09:01;8.10;99.90
49855;DHT22;35752;52.164;21.244;2022-12-29T12:11:28;8.10;99.90
49855;DHT22;35752;52.164;21.244;2022-12-29T12:16:51;8.20;99.90
49855;DHT22;35752;52.164;21.244;2022-12-29T12:19:46;8.20;99.90
49855;DHT22;35752;52.164;21.244;2022-12-29T12:25:33;8.20;99.90
49855;DHT22;35752;52.164;21.244;2022-12-29T12:28:28;8.20;99.90
49855;DHT22;35752;52.164;21.244;2022-12-29T12:30:57;8.20;99.90
49855;DHT22;35752;52.164;21.244;2022-12-29T12:33:37;8.20;99.90
49855;DHT22;35752;52.164;21.244;2022-12-29T12:39:11;8.20;99.90
49855;DHT22;35752;52.164;21.244;2022-12-29T12:44:28;8.20;99.90
49855;DHT22;35752;52.164;21.244;2022-12-29T12:47:18;8.20;99.90
49855;DHT22;35752;52.164;21.244;2022-12-29T12:50:02;8.30;99.90
49855;DHT22;35752;52.164;21.244;2022-12-29T13:17:01;8.40;99.90
49855;DHT22;35752;52.164;21.244;2022-12-29T13:19:56;8.40;99.90
49855;DHT22;35752;52.164;21.244;2022-12-29T13:23:02;8.40;99.90
49855;DHT22;35752;52.164;21.244;2022-12-29T13:25:37;8.40;99.90
49855;DHT22;35752;52.164;21.244;2022-12-29T13:35:59;8.40;99.90
49855;DHT22;35752;52.164;21.244;2022-12-29T13:38:31;8.40;99.90
49855;DHT22;35752;52.164;21.244;2022-12-29T13:41:05;8.40;99.90
49855;DHT22;35752;52.164;21.244;2022-12-29T13:43:34;8.40;99.90
49855;DHT22;35752;52.164;21.244;2022-12-29T13:46:15;8.40;99.90
49855;DHT22;35752;52.164;21.244;2022-12-29T13:49:07;8.40;99.90
49855;DHT22;35752;52.164;21.244;2022-12-29T13:51:40;8.50;99.90
49855;DHT22;35752;52.164;21.244;2022-12-29T13:54:18;8.50;99.90
49855;DHT22;35752;52.164;21.244;2022-12-29T13:57:00;8.50;99.90
49855;DHT22;35752;52.164;21.244;2022-12-29T14:00:07;8.50;99.90
49855;DHT22;35752;52.164;21.244;2022-12-29T14:07:57;8.60;99.90
49855;DHT22;35752;52.164;21.244;2022-12-29T14:13:10;8.60;99.90
49855;DHT22;35752;52.164;21.244;2022-12-29T14:15:57;8.60;99.90
49855;DHT22;35752;52.164;21.244;2022-12-29T14:18:28;8.60;99.90
49855;DHT22;35752;52.164;21.244;2022-12-29T14:33:41;8.60;99.90
49855;DHT22;35752;52.164;21.244;2022-12-29T14:36:40;8.60;99.90
49855;DHT22;35752;52.164;21.244;2022-12-29T14:39:44;8.60;99.90
49855;DHT22;35752;52.164;21.244;2022-12-29T14:44:58;8.70;99.90
49855;DHT22;35752;52.164;21.244;2022-12-29T14:47:31;8.70;99.90
49855;DHT22;35752;52.164;21.244;2022-12-29T14:50:04;8.70;99.90
49855;DHT22;35752;52.164;21.244;2022-12-29T14:52:31;8.70;99.90
49855;DHT22;35752;52.164;21.244;2022-12-29T14:55:41;8.70;99.90
49855;DHT22;35752;52.164;21.244;2022-12-29T14:57:50;8.70;99.90
49855;DHT22;35752;52.164;21.244;2022-12-29T15:00:26;8.70;99.90
49855;DHT22;35752;52.164;21.244;2022-12-29T15:03:05;8.70;99.90
49855;DHT22;35752;52.164;21.244;2022-12-29T15:05:46;8.70;99.90
49855;DHT22;35752;52.164;21.244;2022-12-29T15:08:18;8.70;99.90
49855;DHT22;35752;52.164;21.244;2022-12-29T15:11:10;8.70;99.90
49855;DHT22;35752;52.164;21.244;2022-12-29T15:13:39;8.80;99.90
49855;DHT22;35752;52.164;21.244;2022-12-29T15:16:23;8.70;99.90
49855;DHT22;35752;52.164;21.244;2022-12-29T15:18:49;8.70;99.90
49855;DHT22;35752;52.164;21.244;2022-12-29T15:21:15;8.70;99.90
49855;DHT22;35752;52.164;21.244;2022-12-29T15:23:44;8.80;99.90
49855;DHT22;35752;52.164;21.244;2022-12-29T15:26:10;8.70;99.90
49855;DHT22;35752;52.164;21.244;2022-12-29T15:28:45;8.70;99.90
49855;DHT22;35752;52.164;21.244;2022-12-29T15:33:48;8.80;99.90
49855;DHT22;35752;52.164;21.244;2022-12-29T15:36:26;8.70;99.90
49855;DHT22;35752;52.164;21.244;2022-12-29T15:38:52;8.70;99.90
49855;DHT22;35752;52.164;21.244;2022-12-29T15:41:42;8.70;99.90
49855;DHT22;35752;52.164;21.244;2022-12-29T15:44:39;8.60;99.90
49855;DHT22;35752;52.164;21.244;2022-12-29T15:47:12;8.60;99.90
49855;DHT22;35752;52.164;21.244;2022-12-29T15:49:42;8.60;99.90
49855;DHT22;35752;52.164;21.244;2022-12-29T15:52:09;8.50;99.90
49855;DHT22;35752;52.164;21.244;2022-12-29T15:54:35;8.50;99.90
49855;DHT22;35752;52.164;21.244;2022-12-29T15:57:01;8.50;99.90
49855;DHT22;35752;52.164;21.244;2022-12-29T15:59:30;8.50;99.90
49855;DHT22;35752;52.164;21.244;2022-12-29T16:01:57;8.50;99.90
49855;DHT22;35752;52.164;21.244;2022-12-29T16:04:27;8.50;99.90
49855;DHT22;35752;52.164;21.244;2022-12-29T16:07:02;8.40;99.90
49855;DHT22;35752;52.164;21.244;2022-12-29T16:09:36;8.40;99.90
49855;DHT22;35752;52.164;21.244;2022-12-29T16:12:17;8.40;99.90
49855;DHT22;35752;52.164;21.244;2022-12-29T16:14:56;8.40;99.90
49855;DHT22;35752;52.164;21.244;2022-12-29T16:17:25;8.30;99.90
49855;DHT22;35752;52.164;21.244;2022-12-29T16:20:03;8.20;99.90
49855;DHT22;35752;52.164;21.244;2022-12-29T16:22:36;8.10;99.90
49855;DHT22;35752;52.164;21.244;2022-12-29T16:25:14;8.20;99.90
49855;DHT22;35752;52.164;21.244;2022-12-29T16:27:42;8.10;99.90
49855;DHT22;35752;52.164;21.244;2022-12-29T16:30:30;8.10;99.90
49855;DHT22;35752;52.164;21.244;2022-12-29T16:33:01;8.10;99.90
49855;DHT22;35752;52.164;21.244;2022-12-29T16:35:46;8.00;99.90
49855;DHT22;35752;52.164;21.244;2022-12-29T16:38:20;8.10;99.90
49855;DHT22;35752;52.164;21.244;2022-12-29T16:40:56;8.10;99.90
49855;DHT22;35752;52.164;21.244;2022-12-29T16:43:29;8.10;99.90
49855;DHT22;35752;52.164;21.244;2022-12-29T16:51:05;8.00;99.90
49855;DHT22;35752;52.164;21.244;2022-12-29T16:53:35;8.00;99.90
49855;DHT22;35752;52.164;21.244;2022-12-29T16:56:28;8.00;99.90
49855;DHT22;35752;52.164;21.244;2022-12-29T16:59:06;8.00;99.90
49855;DHT22;35752;52.164;21.244;2022-12-29T17:01:38;8.00;99.90
49855;DHT22;35752;52.164;21.244;2022-12-29T17:04:07;8.10;99.90
49855;DHT22;35752;52.164;21.244;2022-12-29T17:06:34;8.10;99.90
49855;DHT22;35752;52.164;21.244;2022-12-29T17:09:00;8.20;99.90
49855;DHT22;35752;52.164;21.244;2022-12-29T17:11:31;8.20;99.90
49855;DHT22;35752;52.164;21.244;2022-12-29T17:14:34;8.20;99.90
49855;DHT22;35752;52.164;21.244;2022-12-29T17:17:02;8.30;99.90
49855;DHT22;35752;52.164;21.244;2022-12-29T17:19:31;8.20;99.90
49855;DHT22;35752;52.164;21.244;2022-12-29T17:21:57;8.20;99.90
49855;DHT22;35752;52.164;21.244;2022-12-29T17:24:23;8.20;99.90
49855;DHT22;35752;52.164;21.244;2022-12-29T17:26:54;8.20;99.90
49855;DHT22;35752;52.164;21.244;2022-12-29T17:29:37;8.30;99.90
49855;DHT22;35752;52.164;21.244;2022-12-29T17:32:05;8.30;99.90
49855;DHT22;35752;52.164;21.244;2022-12-29T17:34:32;8.30;99.90
49855;DHT22;35752;52.164;21.244;2022-12-29T17:36:58;8.30;99.90
49855;DHT22;35752;52.164;21.244;2022-12-29T17:39:23;8.30;99.90
49855;DHT22;35752;52.164;21.244;2022-12-29T17:41:49;8.30;99.90
49855;DHT22;35752;52.164;21.244;2022-12-29T17:44:17;8.30;99.90
49855;DHT22;35752;52.164;21.244;2022-12-29T17:46:44;8.40;99.90
49855;DHT22;35752;52.164;21.244;2022-12-29T17:49:15;8.40;99.90
49855;DHT22;35752;52.164;21.244;2022-12-29T17:51:42;8.40;99.90
49855;DHT22;35752;52.164;21.244;2022-12-29T17:54:34;8.40;99.90
49855;DHT22;35752;52.164;21.244;2022-12-29T17:57:00;8.50;99.90
49855;DHT22;35752;52.164;21.244;2022-12-29T17:59:26;8.50;99.90
49855;DHT22;35752;52.164;21.244;2022-12-29T18:01:51;8.50;99.90
49855;DHT22;35752;52.164;21.244;2022-12-29T18:04:19;8.50;99.90
49855;DHT22;35752;52.164;21.244;2022-12-29T18:06:45;8.50;99.90
49855;DHT22;35752;52.164;21.244;2022-12-29T18:09:12;8.50;99.90
49855;DHT22;35752;52.164;21.244;2022-12-29T18:11:39;8.50;99.90
49855;DHT22;35752;52.164;21.244;2022-12-29T18:14:11;8.50;99.90
49855;DHT22;35752;52.164;21.244;2022-12-29T18:16:37;8.50;99.90
49855;DHT22;35752;52.164;21.244;2022-12-29T18:19:03;8.50;99.90